createdAt,value
2018-12-03T00:01:06.996Z,100.00
2018-12-03T00:03:36.056Z,100.00
2018-12-03T00:06:04.377Z,100.00
2018-12-03T00:08:32.628Z,100.00
2018-12-03T00:11:00.857Z,100.00
2018-12-03T00:13:29.082Z,100.00
2018-12-03T00:15:57.285Z,100.00
2018-12-03T00:18:25.533Z,100.00
2018-12-03T00:20:53.780Z,100.00
2018-12-03T00:23:22.005Z,100.00
2018-12-03T00:25:50.257Z,100.00
2018-12-03T00:28:18.467Z,100.00
2018-12-03T00:36:32.155Z,100.00
2018-12-03T00:39:00.388Z,100.00
2018-12-03T00:41:28.632Z,100.00
2018-12-03T00:43:56.867Z,100.00
2018-12-03T00:46:25.095Z,100.00
2018-12-03T00:48:55.345Z,100.00
2018-12-03T00:51:23.609Z,100.00
2018-12-03T00:53:51.839Z,100.00
2018-12-03T00:56:20.093Z,100.00
2018-12-03T00:58:48.312Z,100.00
2018-12-03T01:01:16.567Z,100.00
2018-12-03T01:03:44.807Z,100.00
2018-12-03T01:06:13.062Z,100.00
2018-12-03T01:08:48.681Z,100.00
2018-12-03T01:11:16.933Z,100.00
2018-12-03T01:13:45.144Z,99.81
2018-12-03T01:16:18.113Z,98.36
2018-12-03T01:18:46.354Z,98.40
2018-12-03T01:21:14.571Z,98.54
2018-12-03T01:23:42.795Z,99.37
2018-12-03T01:26:10.999Z,99.59
2018-12-03T01:28:39.221Z,98.62
2018-12-03T01:31:26.196Z,98.55
2018-12-03T01:33:54.407Z,98.79
2018-12-03T01:36:22.660Z,99.46
2018-12-03T01:38:50.890Z,99.09
2018-12-03T01:41:19.117Z,99.45
2018-12-03T01:43:47.335Z,98.28
2018-12-03T01:46:15.540Z,98.71
2018-12-03T01:48:43.873Z,98.46
2018-12-03T01:51:12.037Z,99.82
2018-12-03T01:53:40.255Z,99.52
2018-12-03T01:56:08.475Z,99.02
2018-12-03T01:58:36.675Z,99.91
2018-12-03T02:01:05.011Z,99.84
2018-12-03T02:03:33.265Z,100.00
2018-12-03T02:06:01.555Z,100.00
2018-12-03T02:08:29.797Z,100.00
2018-12-03T02:10:58.094Z,99.90
2018-12-03T02:13:26.308Z,100.00
2018-12-03T02:15:54.513Z,99.96
2018-12-03T02:18:22.838Z,99.64
2018-12-03T02:20:51.065Z,100.00
2018-12-03T02:23:19.314Z,99.77
2018-12-03T02:25:47.537Z,100.00
2018-12-03T02:28:15.737Z,100.00
2018-12-03T02:30:43.986Z,100.00
2018-12-03T02:33:12.183Z,100.00
2018-12-03T02:35:40.402Z,100.00
2018-12-03T02:38:08.625Z,99.39
2018-12-03T02:40:41.521Z,99.68
2018-12-03T02:43:09.725Z,99.99
2018-12-03T02:45:37.965Z,100.00
2018-12-03T02:48:06.444Z,100.00
2018-12-03T02:50:41.391Z,100.00
2018-12-03T02:53:09.608Z,100.00
2018-12-03T02:55:37.836Z,100.00
2018-12-03T02:58:06.064Z,100.00
2018-12-03T03:00:38.721Z,100.00
2018-12-03T03:03:07.264Z,100.00
2018-12-03T03:05:35.749Z,100.00
2018-12-03T03:08:04.033Z,100.00
2018-12-03T03:10:32.267Z,100.00
2018-12-03T03:13:00.527Z,100.00
2018-12-03T03:15:28.757Z,100.00
2018-12-03T03:17:56.960Z,100.00
2018-12-03T03:20:25.168Z,100.00
2018-12-03T03:22:53.388Z,100.00
2018-12-03T03:25:21.636Z,100.00
2018-12-03T03:27:49.935Z,100.00
2018-12-03T03:30:18.170Z,100.00
2018-12-03T03:32:46.413Z,100.00
2018-12-03T03:35:15.011Z,100.00
2018-12-03T03:37:43.279Z,100.00
2018-12-03T03:40:14.075Z,100.00
2018-12-03T03:42:43.419Z,99.84
2018-12-03T03:45:16.945Z,99.81
2018-12-03T03:47:45.199Z,98.37
2018-12-03T03:50:13.408Z,98.16
2018-12-03T03:52:41.629Z,97.93
2018-12-03T03:55:10.528Z,99.08
2018-12-03T03:57:38.778Z,98.52
2018-12-03T04:00:11.163Z,99.97
2018-12-03T04:02:39.589Z,99.80
2018-12-03T04:05:09.274Z,99.26
2018-12-03T04:07:37.490Z,100.00
2018-12-03T04:10:08.980Z,99.95
2018-12-03T04:12:37.231Z,100.00
2018-12-03T04:15:07.740Z,100.00
2018-12-03T04:17:36.037Z,100.00
2018-12-03T04:20:07.513Z,100.00
2018-12-03T04:22:35.731Z,100.00
2018-12-03T04:25:04.100Z,100.00
2018-12-03T04:27:32.313Z,100.00
2018-12-03T04:30:00.546Z,100.00
2018-12-03T04:32:28.756Z,99.67
2018-12-03T04:34:57.005Z,100.00
2018-12-03T04:37:25.235Z,100.00
2018-12-03T04:39:53.445Z,100.00
2018-12-03T04:42:21.663Z,100.00
2018-12-03T04:44:49.902Z,100.00
2018-12-03T04:47:18.101Z,99.52
2018-12-03T04:49:46.337Z,100.00
2018-12-03T04:52:14.543Z,100.00
2018-12-03T04:54:42.794Z,100.00
2018-12-03T04:57:11.004Z,100.00
2018-12-03T04:59:39.253Z,99.65
2018-12-03T05:02:07.463Z,100.00
2018-12-03T05:04:35.653Z,99.92
2018-12-03T05:07:04.063Z,98.83
2018-12-03T05:09:32.294Z,98.33
2018-12-03T05:12:03.840Z,97.40
2018-12-03T05:14:32.052Z,97.82
2018-12-03T05:17:00.234Z,98.46
2018-12-03T05:19:28.436Z,99.09
2018-12-03T05:21:56.662Z,99.21
2018-12-03T05:24:24.884Z,99.47
2018-12-03T05:26:53.092Z,99.03
2018-12-03T05:29:21.304Z,98.98
2018-12-03T05:31:53.297Z,98.72
2018-12-03T05:34:21.497Z,99.22
2018-12-03T05:36:49.716Z,98.94
2018-12-03T05:39:17.921Z,98.78
2018-12-03T05:41:46.148Z,98.54
2018-12-03T05:44:14.352Z,99.48
2018-12-03T05:46:42.563Z,99.41
2018-12-03T05:49:10.783Z,99.29
2018-12-03T05:51:39.026Z,98.40
2018-12-03T05:54:07.223Z,99.11
2018-12-03T05:56:35.477Z,98.70
2018-12-03T05:59:03.739Z,98.85
2018-12-03T06:01:31.956Z,98.97
2018-12-03T06:04:00.192Z,99.66
2018-12-03T06:06:28.409Z,100.00
2018-12-03T06:08:56.653Z,100.00
2018-12-03T06:11:24.895Z,100.00
2018-12-03T06:13:53.104Z,99.71
2018-12-03T06:16:21.312Z,99.92
2018-12-03T06:18:49.560Z,100.00
2018-12-03T06:21:17.819Z,100.00
2018-12-03T06:23:46.047Z,100.00
2018-12-03T06:26:14.267Z,100.00
2018-12-03T06:28:42.491Z,100.00
2018-12-03T06:31:10.711Z,100.00
2018-12-03T06:33:38.925Z,100.00
2018-12-03T06:36:07.146Z,100.00
2018-12-03T06:38:35.351Z,100.00
2018-12-03T06:41:03.822Z,100.00
2018-12-03T06:43:32.032Z,100.00
2018-12-03T06:46:00.264Z,100.00
2018-12-03T06:48:28.492Z,100.00
2018-12-03T06:50:56.688Z,100.00
2018-12-03T06:53:24.884Z,99.16
2018-12-03T06:55:53.132Z,98.34
2018-12-03T06:58:21.353Z,98.87
2018-12-03T07:00:49.607Z,97.25
2018-12-03T07:03:17.860Z,97.35
2018-12-03T07:05:48.747Z,97.13
2018-12-03T07:08:17.272Z,96.32
2018-12-03T07:10:45.511Z,96.99
2018-12-03T07:13:16.621Z,97.23
2018-12-03T07:15:45.567Z,97.11
2018-12-03T07:18:14.081Z,96.81
2018-12-03T07:20:42.328Z,96.58
2018-12-03T07:23:10.523Z,97.50
2018-12-03T07:25:38.737Z,97.41
2018-12-03T07:28:07.054Z,98.81
2018-12-03T07:30:35.306Z,98.44
2018-12-03T07:33:03.637Z,99.07
2018-12-03T07:35:31.874Z,98.82
2018-12-03T07:38:00.084Z,98.42
2018-12-03T07:40:34.853Z,98.33
2018-12-03T07:43:03.113Z,98.70
2018-12-03T07:45:31.323Z,98.67
2018-12-03T07:47:59.536Z,99.82
2018-12-03T07:50:27.766Z,100.00
2018-12-03T07:52:56.002Z,99.96
2018-12-03T07:55:25.213Z,99.34
2018-12-03T07:58:01.132Z,98.91
2018-12-03T08:00:36.424Z,98.92
2018-12-03T08:03:05.237Z,98.57
2018-12-03T08:05:33.625Z,99.01
2018-12-03T08:08:01.947Z,98.93
2018-12-03T08:10:32.572Z,100.00
2018-12-03T08:13:08.856Z,99.16
2018-12-03T08:15:37.077Z,98.25
2018-12-03T08:18:08.301Z,98.47
2018-12-03T08:20:43.469Z,98.67
2018-12-03T08:23:18.021Z,98.79
2018-12-03T08:25:46.289Z,98.53
2018-12-03T08:28:14.604Z,98.93
2018-12-03T08:30:42.805Z,98.47
2018-12-03T08:33:15.421Z,97.34
2018-12-03T08:35:43.851Z,97.35
2018-12-03T08:38:15.865Z,97.13
2018-12-03T08:40:44.192Z,96.53
2018-12-03T08:43:17.952Z,95.62
2018-12-03T08:45:48.294Z,97.00
2018-12-03T08:48:18.567Z,96.60
2018-12-03T08:50:47.720Z,96.16
2018-12-03T08:53:15.980Z,96.83
2018-12-03T08:55:44.278Z,98.02
2018-12-03T08:58:15.592Z,96.77
2018-12-03T09:00:45.281Z,97.60
2018-12-03T09:03:23.653Z,98.29
2018-12-03T09:05:51.971Z,97.63
2018-12-03T09:08:20.359Z,97.28
2018-12-03T09:10:48.636Z,97.49
2018-12-03T09:13:20.545Z,98.37
2018-12-03T09:15:57.623Z,98.09
2018-12-03T09:18:31.344Z,98.12
2018-12-03T09:21:00.238Z,99.01
2018-12-03T09:23:29.453Z,98.10
2018-12-03T09:25:57.776Z,98.57
2018-12-03T09:28:26.080Z,99.32
2018-12-03T09:30:54.351Z,98.43
2018-12-03T09:33:22.624Z,98.75
2018-12-03T09:35:50.881Z,99.45
2018-12-03T09:38:19.122Z,98.76
2018-12-03T09:40:47.335Z,98.67
2018-12-03T09:43:15.632Z,97.51
2018-12-03T09:45:43.844Z,97.61
2018-12-03T09:48:12.089Z,98.04
2018-12-03T09:50:41.331Z,97.84
2018-12-03T09:53:09.577Z,97.33
2018-12-03T09:55:37.804Z,98.40
2018-12-03T09:58:08.637Z,98.35
2018-12-03T10:00:36.868Z,98.48
2018-12-03T10:03:09.634Z,98.09
2018-12-03T10:05:40.313Z,97.46
2018-12-03T10:08:08.539Z,97.69
2018-12-03T10:10:36.734Z,97.97
2018-12-03T10:13:07.646Z,98.17
2018-12-03T10:15:36.908Z,98.57
2018-12-03T10:18:06.489Z,97.67
2018-12-03T10:20:34.697Z,98.18
2018-12-03T10:23:05.163Z,98.17
2018-12-03T10:25:33.362Z,97.79
2018-12-03T10:28:04.260Z,98.08
2018-12-03T10:30:32.461Z,98.21
2018-12-03T10:33:01.755Z,97.80
2018-12-03T10:35:36.565Z,98.72
2018-12-03T10:38:12.414Z,98.66
2018-12-03T10:40:44.308Z,99.49
2018-12-03T10:43:12.708Z,98.48
2018-12-03T10:45:41.104Z,98.17
2018-12-03T10:48:09.325Z,98.26
2018-12-03T10:50:37.575Z,97.77
2018-12-03T10:53:06.091Z,97.64
2018-12-03T10:55:37.307Z,96.91
2018-12-03T10:58:08.685Z,96.79
2018-12-03T11:02:52.280Z,97.15
2018-12-03T11:05:34.745Z,96.36
2018-12-03T11:08:03.117Z,96.62
2018-12-03T11:10:39.681Z,96.17
2018-12-03T11:13:07.944Z,95.53
2018-12-03T11:15:36.141Z,96.26
2018-12-03T11:18:10.126Z,96.28
2018-12-03T11:20:38.382Z,95.19
2018-12-03T11:23:09.234Z,96.36
2018-12-03T11:25:42.430Z,96.85
2018-12-03T11:28:13.739Z,97.33
2018-12-03T11:30:49.815Z,96.28
2018-12-03T11:33:22.145Z,95.56
2018-12-03T11:35:50.709Z,95.23
2018-12-03T11:38:28.690Z,96.74
2018-12-03T11:40:57.312Z,94.92
2018-12-03T11:43:27.513Z,95.10
2018-12-03T11:45:55.861Z,96.24
2018-12-03T11:48:29.368Z,96.44
2018-12-03T11:50:58.680Z,92.33
2018-12-03T11:53:27.989Z,93.97
2018-12-03T11:55:56.244Z,93.76
2018-12-03T11:58:28.523Z,93.30
2018-12-03T12:01:07.675Z,94.52
2018-12-03T12:03:42.749Z,94.13
2018-12-03T12:06:11.912Z,94.78
2018-12-03T12:08:43.449Z,94.06
2018-12-03T12:14:26.201Z,95.04
2018-12-03T12:16:54.427Z,96.22
2018-12-03T12:19:22.645Z,95.95
2018-12-03T12:21:50.872Z,97.50
2018-12-03T12:24:19.125Z,96.58
2018-12-03T12:26:47.396Z,92.14
2018-12-03T12:29:16.653Z,92.32
2018-12-03T12:31:44.938Z,91.46
2018-12-03T12:34:23.116Z,92.73
2018-12-03T12:36:51.467Z,92.67
2018-12-03T12:39:19.845Z,92.37
2018-12-03T12:41:48.066Z,93.34
2018-12-03T12:44:24.101Z,92.24
2018-12-03T12:46:53.467Z,93.19
2018-12-03T12:49:23.516Z,92.60
2018-12-03T12:51:51.858Z,93.33
2018-12-03T12:54:19.979Z,93.36
2018-12-03T12:56:48.980Z,93.77
2018-12-03T12:59:17.704Z,93.37
2018-12-03T13:01:47.032Z,94.13
2018-12-03T13:04:15.275Z,94.62
2018-12-03T13:06:43.512Z,95.24
2018-12-03T13:09:11.787Z,95.84
2018-12-03T13:11:40.813Z,97.76
2018-12-03T13:14:10.923Z,96.58
2018-12-03T13:16:39.344Z,95.08
2018-12-03T13:19:08.691Z,94.91
2018-12-03T13:21:36.907Z,95.10
2018-12-03T13:24:05.566Z,94.64
2018-12-03T13:26:35.678Z,93.36
2018-12-03T13:29:03.934Z,93.56
2018-12-03T13:31:32.229Z,92.98
2018-12-03T13:34:00.487Z,94.75
2018-12-03T13:36:29.828Z,95.48
2018-12-03T13:38:58.204Z,96.07
2018-12-03T13:41:26.704Z,96.32
2018-12-03T13:43:55.037Z,96.25
2018-12-03T13:46:23.337Z,95.72
2018-12-03T13:48:51.564Z,96.37
2018-12-03T13:51:19.775Z,96.74
2018-12-03T13:53:48.005Z,96.96
2018-12-03T13:56:16.234Z,97.01
2018-12-03T13:58:44.471Z,97.51
2018-12-03T14:01:12.692Z,96.58
2018-12-03T14:03:41.424Z,96.76
2018-12-03T14:06:17.944Z,96.69
2018-12-03T14:09:27.102Z,96.43
2018-12-03T14:12:15.144Z,96.77
2018-12-03T14:15:12.600Z,96.55
2018-12-03T14:17:47.347Z,96.15
2018-12-03T14:20:15.770Z,96.33
2018-12-03T14:22:57.480Z,97.02
2018-12-03T14:25:25.731Z,95.68
2018-12-03T14:27:53.985Z,95.96
2018-12-03T14:30:22.307Z,95.14
2018-12-03T14:32:50.529Z,95.12
2018-12-03T14:35:18.737Z,95.73
2018-12-03T14:37:46.976Z,95.47
2018-12-03T14:40:15.240Z,95.00
2018-12-03T14:46:21.385Z,95.37
2018-12-03T14:48:48.781Z,94.98
2018-12-03T14:51:22.271Z,96.03
2018-12-03T14:53:49.708Z,96.28
2018-12-03T14:56:25.084Z,96.96
2018-12-03T14:58:52.460Z,97.65
2018-12-03T15:01:19.844Z,97.03
2018-12-03T15:03:47.231Z,96.90
2018-12-03T15:06:14.611Z,98.21
2018-12-03T15:08:42.029Z,98.47
2018-12-03T15:11:09.415Z,99.26
2018-12-03T15:13:36.816Z,99.06
2018-12-03T15:16:04.283Z,98.64
2018-12-03T15:18:31.742Z,98.48
2018-12-03T15:20:59.186Z,99.04
2018-12-03T15:23:29.872Z,99.79
2018-12-03T15:26:06.857Z,97.77
2018-12-03T15:28:40.239Z,98.98
2018-12-03T15:31:13.983Z,98.28
2018-12-03T15:33:51.207Z,98.23
2018-12-03T15:36:29.240Z,97.53
2018-12-03T15:39:02.275Z,98.41
2018-12-03T15:41:37.081Z,98.46
2018-12-03T15:44:08.286Z,98.06
2018-12-03T15:46:42.246Z,98.79
2018-12-03T15:54:56.832Z,99.45
2018-12-03T15:57:29.003Z,98.83
2018-12-03T15:59:58.218Z,98.72
2018-12-03T16:02:27.041Z,98.68
2018-12-03T16:04:57.908Z,98.65
2018-12-03T16:07:27.108Z,99.68
2018-12-03T16:09:57.269Z,100.00
2018-12-03T16:12:30.967Z,100.00
2018-12-03T16:15:05.697Z,99.83
2018-12-03T16:17:39.309Z,98.98
2018-12-03T16:20:16.387Z,99.53
2018-12-03T16:22:56.909Z,99.64
2018-12-03T16:25:26.544Z,99.27
2018-12-03T16:27:56.959Z,98.02
2018-12-03T16:30:30.729Z,98.46
2018-12-03T16:33:09.368Z,98.28
2018-12-03T16:35:38.577Z,98.26
2018-12-03T16:38:09.399Z,98.39
2018-12-03T16:40:39.914Z,98.98
2018-12-03T16:43:13.800Z,98.42
2018-12-03T16:45:47.490Z,98.23
2018-12-03T16:48:20.744Z,97.52
2018-12-03T16:50:54.076Z,97.05
2018-12-03T16:53:27.998Z,96.97
2018-12-03T16:56:01.960Z,97.36
2018-12-03T16:58:37.047Z,96.24
2018-12-03T17:01:11.030Z,95.50
2018-12-03T17:03:44.935Z,96.40
2018-12-03T17:06:18.705Z,95.77
2018-12-03T17:08:52.060Z,95.44
2018-12-03T17:11:25.978Z,96.12
2018-12-03T17:13:59.077Z,95.67
2018-12-03T17:16:30.258Z,95.80
2018-12-03T17:19:04.309Z,95.70
2018-12-03T17:21:38.533Z,96.87
2018-12-03T17:24:12.305Z,96.63
2018-12-03T17:26:47.510Z,97.05
2018-12-03T17:29:21.560Z,97.44
2018-12-03T17:31:59.821Z,96.83
2018-12-03T17:34:35.902Z,97.27
2018-12-03T17:40:17.915Z,96.35
2018-12-03T17:42:47.105Z,96.33
2018-12-03T17:45:18.561Z,96.32
2018-12-03T17:47:47.301Z,95.63
2018-12-03T17:50:21.324Z,96.12
2018-12-03T17:52:50.325Z,96.85
2018-12-03T17:55:24.222Z,95.24
2018-12-03T17:57:59.006Z,94.45
2018-12-03T18:00:32.162Z,94.31
2018-12-03T18:03:06.336Z,94.30
2018-12-03T18:05:58.519Z,94.12
2018-12-03T18:08:32.443Z,93.99
2018-12-03T18:11:05.742Z,95.42
2018-12-03T18:13:38.809Z,95.66
2018-12-03T18:16:24.341Z,95.05
2018-12-03T18:18:57.710Z,95.81
2018-12-03T18:21:34.081Z,95.60
2018-12-03T18:24:05.107Z,95.58
2018-12-03T18:26:34.232Z,97.10
2018-12-03T18:29:08.260Z,96.93
2018-12-03T18:31:42.216Z,96.71
2018-12-03T18:34:13.313Z,95.29
2018-12-03T18:36:42.297Z,95.71
2018-12-03T18:39:16.199Z,93.85
2018-12-03T18:41:50.233Z,94.03
2018-12-03T18:44:23.887Z,94.04
2018-12-03T18:46:58.839Z,93.79
2018-12-03T18:49:32.762Z,94.58
2018-12-03T18:52:06.827Z,93.97
2018-12-03T18:54:38.022Z,94.04
2018-12-03T18:57:12.088Z,94.05
2018-12-03T18:59:46.053Z,93.10
2018-12-03T19:02:20.036Z,94.13
2018-12-03T19:04:51.275Z,94.95
2018-12-03T19:07:20.191Z,93.75
2018-12-03T19:09:54.045Z,92.63
2018-12-03T19:12:28.099Z,93.48
2018-12-03T19:15:02.037Z,94.96
2018-12-03T19:17:32.978Z,94.75
2018-12-03T19:20:07.254Z,94.39
2018-12-03T19:22:41.135Z,94.75
2018-12-03T19:25:14.905Z,94.09
2018-12-03T19:27:57.484Z,93.79
2018-12-03T19:30:31.087Z,95.31
2018-12-03T19:33:01.445Z,95.38
2018-12-03T19:35:35.323Z,96.00
2018-12-03T19:38:16.202Z,96.16
2018-12-03T19:40:45.192Z,96.39
2018-12-03T19:43:18.965Z,96.52
2018-12-03T19:46:00.269Z,95.87
2018-12-03T19:48:33.977Z,96.16
2018-12-03T19:51:13.751Z,95.91
2018-12-03T19:53:44.412Z,95.35
2018-12-03T19:56:13.508Z,94.93
2018-12-03T19:58:55.224Z,94.72
2018-12-03T20:01:35.187Z,93.19
2018-12-03T20:04:17.473Z,92.34
2018-12-03T20:06:51.424Z,92.45
2018-12-03T20:09:30.399Z,91.03
2018-12-03T20:12:04.009Z,91.22
2018-12-03T20:14:37.812Z,91.89
2018-12-03T20:17:08.256Z,91.08
2018-12-03T20:19:41.746Z,90.38
2018-12-03T20:22:10.341Z,88.91
2018-12-03T20:24:43.439Z,87.99
2018-12-03T20:27:17.308Z,89.53
2018-12-03T20:29:52.343Z,88.75
2018-12-03T20:32:25.442Z,88.09
2018-12-03T20:34:57.709Z,88.30
2018-12-03T20:37:31.568Z,89.30
2018-12-03T20:40:09.683Z,89.40
2018-12-03T20:42:40.438Z,89.08
2018-12-03T20:45:13.377Z,88.86
2018-12-03T20:47:44.992Z,88.34
2018-12-03T20:50:19.036Z,88.05
2018-12-03T20:52:49.455Z,89.20
2018-12-03T20:55:20.618Z,88.12
2018-12-03T20:57:50.636Z,86.62
2018-12-03T21:00:24.537Z,87.10
2018-12-03T21:02:54.929Z,86.65
2018-12-03T21:05:32.535Z,85.21
2018-12-03T21:08:01.961Z,86.18
2018-12-03T21:10:34.852Z,86.51
2018-12-03T21:13:08.824Z,85.89
2018-12-03T21:15:41.035Z,85.34
2018-12-03T21:18:18.993Z,84.27
2018-12-03T21:20:52.250Z,84.94
2018-12-03T21:23:26.141Z,86.12
2018-12-03T21:25:59.245Z,86.05
2018-12-03T21:28:33.128Z,85.15
2018-12-03T21:31:07.532Z,85.66
2018-12-03T21:33:41.020Z,84.88
2018-12-03T21:36:14.411Z,85.60
2018-12-03T21:38:44.764Z,86.90
2018-12-03T21:41:18.429Z,87.21
2018-12-03T21:43:53.383Z,85.88
2018-12-03T21:46:27.365Z,85.61
2018-12-03T21:49:01.342Z,86.79
2018-12-03T21:51:31.813Z,86.45
2018-12-03T21:54:05.385Z,86.72
2018-12-03T21:56:38.570Z,85.80
2018-12-03T21:59:08.985Z,85.96
2018-12-03T22:01:40.016Z,86.65
2018-12-03T22:04:10.505Z,85.39
2018-12-03T22:06:41.730Z,86.97
2018-12-03T22:09:12.055Z,86.10
2018-12-03T22:11:46.927Z,86.66
2018-12-03T22:14:17.540Z,85.61
2018-12-03T22:16:48.757Z,85.39
2018-12-03T22:19:20.012Z,87.56
2018-12-03T22:21:54.768Z,85.82
2018-12-03T22:24:26.080Z,86.52
2018-12-03T22:26:59.153Z,85.88
2018-12-03T22:29:33.179Z,85.04
2018-12-03T22:32:07.280Z,85.28
2018-12-03T22:34:37.595Z,86.59
2018-12-03T22:37:10.888Z,87.45
2018-12-03T22:39:46.331Z,87.41
2018-12-03T22:42:17.381Z,87.56
2018-12-03T22:44:48.248Z,87.06
2018-12-03T22:47:17.877Z,87.97
2018-12-03T22:49:51.882Z,87.64
2018-12-03T22:54:52.122Z,86.53
2018-12-03T22:57:25.418Z,85.83
2018-12-03T22:59:59.292Z,86.79
2018-12-03T23:02:39.602Z,85.85
2018-12-03T23:05:10.115Z,87.50
2018-12-03T23:07:43.364Z,85.83
2018-12-03T23:10:12.604Z,86.09
2018-12-03T23:12:50.033Z,86.62
2018-12-03T23:15:36.293Z,85.62
2018-12-03T23:18:05.529Z,85.75
2018-12-03T23:20:38.901Z,85.98
2018-12-03T23:23:10.482Z,85.62
2018-12-03T23:28:44.382Z,86.10
2018-12-03T23:31:15.436Z,86.21
2018-12-03T23:33:49.226Z,84.35
2018-12-03T23:36:20.380Z,84.85
2018-12-03T23:38:54.069Z,84.20
2018-12-03T23:41:25.283Z,83.81
2018-12-03T23:44:06.935Z,83.21
2018-12-03T23:46:42.859Z,84.29
2018-12-03T23:49:14.093Z,84.52
2018-12-03T23:51:47.269Z,84.28
2018-12-03T23:56:52.843Z,84.90
2018-12-03T23:59:27.897Z,84.80
